| time (UTC) | temp F | wind direction | speed MPH | gust MPH | rain 1hr in | rain 24hr in | rain mn in | humidity % | barometer mb |
| 20260510115743 | 54 | 104 | 0.0 | 0.0 | 0.00 | 0.00 | 0.00 | 93 | 1016.2 |
| 20260510114518 | 52 | 105 | 0.0 | 0.0 | 0.00 | 0.00 | 0.00 | 97 | 1015.9 |
| 20260510113914 | 52 | 105 | 0.0 | 0.0 | 0.00 | 0.00 | 0.00 | 98 | 1015.9 |
| 20260510112710 | 50 | 104 | 0.0 | 0.0 | 0.00 | 0.00 | 0.00 | 99 | 1015.9 |
| 20260510112131 | 50 | 104 | 1.0 | 1.0 | 0.00 | 0.00 | 0.00 | 99 | 1015.9 |
| 20260510111532 | 49 | 106 | 1.0 | 1.0 | 0.00 | 0.00 | 0.00 | 99 | 1015.5 |
| 20260510110933 | 48 | 109 | 0.0 | 0.0 | 0.00 | 0.00 | 0.00 | 98 | 1015.5 |
| 20260510110312 | 48 | 109 | 0.0 | 0.0 | 0.00 | 0.00 | 0.00 | 98 | 1015.2 |
| 20260510105747 | 48 | 109 | 1.0 | 0.0 | 0.00 | 0.00 | 0.00 | 98 | 1015.2 |
| 20260510105143 | 47 | 109 | 0.0 | 0.0 | 0.00 | 0.00 | 0.00 | 98 | 1014.9 |
| 20260510103935 | 47 | 109 | 1.0 | 2.0 | 0.00 | 0.00 | 0.00 | 98 | 1014.9 |
| 20260510103324 | 47 | 109 | 0.0 | 1.0 | 0.00 | 0.00 | 0.00 | 98 | 1014.9 |
| 20260510102717 | 48 | 109 | 0.0 | 0.0 | 0.00 | 0.00 | 0.00 | 98 | 1014.9 |
| 20260510102142 | 48 | 109 | 0.0 | 0.0 | 0.00 | 0.00 | 0.00 | 98 | 1014.9 |
| 20260510101511 | 48 | 109 | 1.0 | 1.0 | 0.00 | 0.00 | 0.00 | 98 | 1014.9 |
| 20260510100351 | 48 | 109 | 1.0 | 1.0 | 0.00 | 0.00 | 0.00 | 98 | 1014.5 |
| 20260510095710 | 48 | 109 | 0.0 | 0.0 | 0.00 | 0.00 | 0.00 | 98 | 1014.5 |
| 20260510095139 | 48 | 110 | 0.0 | 0.0 | 0.00 | 0.00 | 0.00 | 98 | 1014.2 |
| 20260510094539 | 48 | 109 | 0.0 | 0.0 | 0.00 | 0.00 | 0.00 | 98 | 1013.8 |
| 20260510093908 | 48 | 109 | 0.0 | 1.0 | 0.00 | 0.00 | 0.00 | 98 | 1014.2 |
| 20260510093327 | 48 | 109 | 1.0 | 1.0 | 0.00 | 0.00 | 0.00 | 98 | 1014.2 |
| 20260510092725 | 48 | 109 | 0.0 | 1.0 | 0.00 | 0.00 | 0.00 | 98 | 1014.2 |
| 20260510092129 | 48 | 109 | 0.0 | 0.0 | 0.00 | 0.00 | 0.00 | 98 | 1014.2 |
| 20260510091537 | 48 | 109 | 0.0 | 0.0 | 0.00 | 0.00 | 0.00 | 98 | 1013.8 |
| 20260510090909 | 48 | 110 | 0.0 | 0.0 | 0.00 | 0.00 | 0.00 | 98 | 1014.2 |
| 20260510090341 | 48 | 110 | 0.0 | 0.0 | 0.00 | 0.00 | 0.00 | 98 | 1014.2 |
| 20260510085716 | 48 | 109 | 0.0 | 0.0 | 0.00 | 0.00 | 0.00 | 98 | 1014.2 |
| 20260510083948 | 49 | 109 | 0.0 | 1.0 | 0.00 | 0.00 | 0.00 | 98 | 1013.8 |
| 20260510083352 | 49 | 109 | 0.0 | 0.0 | 0.00 | 0.00 | 0.00 | 98 | 1013.8 |
| 20260510082744 | 49 | 109 | 0.0 | 0.0 | 0.00 | 0.00 | 0.00 | 98 | 1013.8 |
| 20260510082119 | 49 | 109 | 1.0 | 1.0 | 0.00 | 0.00 | 0.00 | 98 | 1013.5 |
| 20260510081549 | 49 | 109 | 0.0 | 0.0 | 0.00 | 0.00 | 0.00 | 97 | 1013.8 |
| 20260510080918 | 50 | 108 | 1.0 | 3.0 | 0.00 | 0.00 | 0.00 | 97 | 1013.5 |
| 20260510080327 | 50 | 144 | 1.0 | 1.0 | 0.00 | 0.00 | 0.00 | 97 | 1013.5 |
| 20260510075750 | 50 | 162 | 2.0 | 2.0 | 0.00 | 0.00 | 0.00 | 97 | 1013.5 |
| 20260510074542 | 50 | 132 | 0.0 | 2.0 | 0.00 | 0.00 | 0.00 | 97 | 1013.5 |
| 20260510073942 | 50 | 126 | 1.0 | 3.0 | 0.00 | 0.00 | 0.00 | 97 | 1013.5 |
| 20260510073347 | 50 | 133 | 3.0 | 3.0 | 0.00 | 0.00 | 0.00 | 97 | 1013.5 |
| 20260510072734 | 50 | 118 | 0.0 | 1.0 | 0.00 | 0.00 | 0.00 | 97 | 1013.5 |
| 20260510072126 | 50 | 117 | 2.0 | 2.0 | 0.00 | 0.00 | 0.00 | 97 | 1013.5 |
| 20260510071546 | 50 | 118 | 0.0 | 1.0 | 0.00 | 0.00 | 0.00 | 97 | 1013.2 |
| 20260510070925 | 51 | 118 | 0.0 | 1.0 | 0.00 | 0.00 | 0.00 | 97 | 1013.5 |
| 20260510070312 | 50 | 107 | 2.0 | 2.0 | 0.00 | 0.00 | 0.00 | 97 | 1013.2 |
| 20260510065734 | 50 | 127 | 1.0 | 3.0 | 0.00 | 0.00 | 0.00 | 97 | 1013.2 |
| 20260510065141 | 51 | 163 | 0.0 | 1.0 | 0.00 | 0.00 | 0.00 | 96 | 1013.5 |
| 20260510063923 | 51 | 100 | 1.0 | 2.0 | 0.00 | 0.00 | 0.00 | 97 | 1013.5 |
| 20260510063330 | 51 | 100 | 1.0 | 2.0 | 0.00 | 0.00 | 0.00 | 96 | 1013.5 |
| 20260510062709 | 51 | 121 | 0.0 | 1.0 | 0.00 | 0.00 | 0.00 | 96 | 1013.5 |
| 20260510062146 | 52 | 120 | 0.0 | 2.0 | 0.00 | 0.00 | 0.00 | 96 | 1013.5 |
| 20260510061534 | 51 | 107 | 1.0 | 2.0 | 0.00 | 0.00 | 0.00 | 96 | 1013.5 |
| 20260510060949 | 51 | 123 | 0.0 | 2.0 | 0.00 | 0.00 | 0.00 | 96 | 1013.5 |
| 20260510060341 | 51 | 123 | 0.0 | 2.0 | 0.00 | 0.00 | 0.00 | 95 | 1013.5 |
| 20260510055725 | 52 | 123 | 0.0 | 1.0 | 0.00 | 0.00 | 0.00 | 96 | 1013.5 |
| 20260510055118 | 51 | 125 | 3.0 | 3.0 | 0.00 | 0.00 | 0.00 | 96 | 1013.5 |
| 20260510054538 | 52 | 139 | 1.0 | 1.0 | 0.00 | 0.00 | 0.00 | 95 | 1013.8 |
| 20260510053314 | 52 | 212 | 2.0 | 3.0 | 0.00 | 0.00 | 0.00 | 95 | 1013.8 |
| 20260510052149 | 52 | 212 | 1.0 | 2.0 | 0.00 | 0.00 | 0.00 | 96 | 1013.8 |
| 20260510051548 | 52 | 212 | 3.0 | 3.0 | 0.00 | 0.00 | 0.00 | 96 | 1013.8 |
| 20260510050912 | 52 | 212 | 2.0 | 2.0 | 0.00 | 0.00 | 0.00 | 96 | 1014.2 |
| 20260510050332 | 52 | 212 | 1.0 | 1.0 | 0.00 | 0.00 | 0.00 | 96 | 1013.8 |
| 20260510045721 | 52 | 212 | 1.0 | 2.0 | 0.00 | 0.00 | 0.00 | 96 | 1013.8 |
| 20260510045110 | 52 | 212 | 1.0 | 1.0 | 0.00 | 0.00 | 0.00 | 95 | 1013.8 |
| 20260510043931 | 53 | 212 | 1.0 | 1.0 | 0.00 | 0.00 | 0.00 | 96 | 1013.8 |
| 20260510043338 | 52 | 212 | 0.0 | 1.0 | 0.00 | 0.00 | 0.00 | 96 | 1013.8 |
| 20260510042711 | 52 | 213 | 1.0 | 1.0 | 0.00 | 0.00 | 0.00 | 96 | 1013.8 |
| 20260510042145 | 53 | 213 | 1.0 | 1.0 | 0.00 | 0.00 | 0.00 | 97 | 1013.8 |
| 20260510041533 | 52 | 213 | 0.0 | 1.0 | 0.00 | 0.00 | 0.00 | 97 | 1013.8 |
| 20260510040924 | 52 | 213 | 1.0 | 1.0 | 0.00 | 0.00 | 0.00 | 97 | 1013.8 |
| 20260510040343 | 51 | 213 | 1.0 | 2.0 | 0.00 | 0.00 | 0.00 | 97 | 1013.5 |
| 20260510035747 | 51 | 213 | 0.0 | 1.0 | 0.00 | 0.00 | 0.02 | 97 | 1013.5 |
| 20260510035123 | 51 | 213 | 0.0 | 0.0 | 0.00 | 0.00 | 0.02 | 97 | 1013.8 |
| 20260510034541 | 51 | 213 | 0.0 | 0.0 | 0.00 | 0.00 | 0.02 | 97 | 1013.8 |
| 20260510033910 | 51 | 212 | 0.0 | 0.0 | 0.00 | 0.00 | 0.02 | 96 | 1013.5 |
| 20260510033316 | 52 | 213 | 0.0 | 1.0 | 0.00 | 0.00 | 0.02 | 96 | 1013.5 |
| 20260510032752 | 52 | 212 | 0.0 | 0.0 | 0.00 | 0.00 | 0.02 | 96 | 1013.5 |
| 20260510032147 | 52 | 212 | 0.0 | 0.0 | 0.00 | 0.00 | 0.02 | 96 | 1013.2 |
| 20260510031524 | 52 | 212 | 0.0 | 0.0 | 0.00 | 0.00 | 0.02 | 96 | 1013.2 |
| 20260510030919 | 52 | 213 | 0.0 | 0.0 | 0.00 | 0.00 | 0.02 | 95 | 1013.2 |
| 20260510030328 | 52 | 212 | 0.0 | 0.0 | 0.00 | 0.00 | 0.02 | 95 | 1013.2 |
| 20260510025732 | 52 | 212 | 0.0 | 0.0 | 0.00 | 0.00 | 0.02 | 95 | 1013.2 |
| 20260510025123 | 53 | 212 | 0.0 | 0.0 | 0.00 | 0.00 | 0.02 | 95 | 1013.2 |
| 20260510023940 | 53 | 212 | 1.0 | 2.0 | 0.00 | 0.00 | 0.02 | 95 | 1013.2 |
| 20260510022739 | 53 | 213 | 0.0 | 0.0 | 0.00 | 0.00 | 0.02 | 94 | 1013.2 |
| 20260510021510 | 54 | 213 | 0.0 | 0.0 | 0.00 | 0.00 | 0.02 | 94 | 1012.8 |
| 20260510020952 | 54 | 213 | 0.0 | 0.0 | 0.00 | 0.00 | 0.02 | 93 | 1012.8 |
| 20260510015740 | 55 | 213 | 0.0 | 0.0 | 0.00 | 0.00 | 0.02 | 92 | 1012.5 |
| 20260510015143 | 55 | 213 | 0.0 | 0.0 | 0.00 | 0.00 | 0.02 | 91 | 1012.8 |
| 20260510014511 | 55 | 213 | 0.0 | 0.0 | 0.00 | 0.00 | 0.02 | 91 | 1012.5 |
| 20260510013946 | 55 | 213 | 0.0 | 0.0 | 0.00 | 0.00 | 0.02 | 90 | 1012.5 |
| 20260510012725 | 56 | 213 | 0.0 | 0.0 | 0.00 | 0.00 | 0.02 | 89 | 1012.1 |
| 20260510012131 | 57 | 213 | 0.0 | 0.0 | 0.00 | 0.00 | 0.02 | 88 | 1012.1 |
| 20260510011556 | 57 | 213 | 1.0 | 1.0 | 0.00 | 0.00 | 0.02 | 86 | 1012.1 |
| 20260510010951 | 58 | 213 | 0.0 | 0.0 | 0.00 | 0.00 | 0.02 | 84 | 1011.8 |
| 20260510010348 | 58 | 213 | 0.0 | 1.0 | 0.00 | 0.00 | 0.02 | 83 | 1011.8 |
| 20260510005143 | 59 | 213 | 0.0 | 0.0 | 0.00 | 0.00 | 0.02 | 79 | 1011.5 |
| 20260510004550 | 60 | 213 | 1.0 | 1.0 | 0.00 | 0.00 | 0.02 | 79 | 1011.5 |
| 20260510003307 | 62 | 214 | 0.0 | 0.0 | 0.00 | 0.00 | 0.02 | 76 | 1011.5 |
| 20260510002716 | 63 | 214 | 0.0 | 0.0 | 0.00 | 0.00 | 0.02 | 71 | 1011.1 |
| 20260510001511 | 64 | 214 | 0.0 | 1.0 | 0.00 | 0.00 | 0.02 | 67 | 1011.1 |
| 20260510000943 | 65 | 214 | 1.0 | 2.0 | 0.00 | 0.00 | 0.02 | 65 | 1011.1 |
| 20260510000349 | 66 | 206 | 1.0 | 1.0 | 0.00 | 0.00 | 0.02 | 63 | 1011.1 |
| 20260509235710 | 66 | 233 | 2.0 | 2.0 | 0.00 | 0.00 | 0.02 | 62 | 1011.1 |
| 20260509235126 | 66 | 229 | 2.0 | 3.0 | 0.00 | 0.00 | 0.02 | 63 | 1011.1 |
| 20260509234543 | 68 | 233 | 3.0 | 4.0 | 0.00 | 0.00 | 0.02 | 59 | 1010.8 |
| 20260509233949 | 68 | 242 | 4.0 | 6.0 | 0.00 | 0.00 | 0.02 | 58 | 1011.1 |
| 20260509233339 | 68 | 237 | 3.0 | 4.0 | 0.00 | 0.00 | 0.02 | 58 | 1011.1 |
| 20260509232130 | 69 | 236 | 6.0 | 7.0 | 0.00 | 0.00 | 0.02 | 56 | 1011.1 |
| 20260509231509 | 69 | 233 | 4.0 | 8.0 | 0.00 | 0.00 | 0.02 | 56 | 1010.8 |
| 20260509230951 | 70 | 243 | 5.0 | 11.0 | 0.00 | 0.00 | 0.02 | 55 | 1011.1 |
| 20260509230332 | 70 | 228 | 5.0 | 9.0 | 0.00 | 0.00 | 0.02 | 54 | 1010.8 |
| 20260509225146 | 71 | 241 | 9.0 | 10.0 | 0.00 | 0.00 | 0.02 | 53 | 1011.1 |
| 20260509224535 | 71 | 259 | 4.0 | 7.0 | 0.00 | 0.00 | 0.02 | 51 | 1011.1 |
| 20260509223928 | 71 | 237 | 7.0 | 9.0 | 0.00 | 0.00 | 0.02 | 50 | 1011.1 |
| 20260509223343 | 71 | 254 | 8.0 | 10.0 | 0.00 | 0.00 | 0.02 | 51 | 1011.1 |
| 20260509222130 | 72 | 258 | 6.0 | 8.0 | 0.00 | 0.00 | 0.02 | 51 | 1011.1 |
| 20260509220917 | 72 | 255 | 3.0 | 4.0 | 0.00 | 0.00 | 0.02 | 51 | 1011.5 |
| 20260509220325 | 71 | 247 | 5.0 | 8.0 | 0.00 | 0.00 | 0.02 | 50 | 1011.1 |
| 20260509215723 | 71 | 222 | 6.0 | 7.0 | 0.00 | 0.00 | 0.02 | 51 | 1011.5 |
| 20260509215134 | 71 | 260 | 6.0 | 7.0 | 0.00 | 0.00 | 0.02 | 52 | 1011.5 |
| 20260509214520 | 72 | 256 | 5.0 | 8.0 | 0.00 | 0.00 | 0.02 | 51 | 1011.1 |
| 20260509213334 | 69 | 259 | 7.0 | 10.0 | 0.00 | 0.00 | 0.02 | 52 | 1011.5 |
| 20260509212738 | 70 | 235 | 6.0 | 10.0 | 0.00 | 0.00 | 0.02 | 52 | 1011.1 |
| 20260509212145 | 72 | 255 | 8.0 | 10.0 | 0.00 | 0.00 | 0.02 | 53 | 1011.1 |
| 20260509211542 | 70 | 256 | 6.0 | 9.0 | 0.00 | 0.00 | 0.02 | 54 | 1011.5 |
| 20260509210931 | 70 | 216 | 2.0 | 3.0 | 0.00 | 0.00 | 0.02 | 55 | 1011.5 |
| 20260509210318 | 71 | 250 | 8.0 | 11.0 | 0.00 | 0.00 | 0.02 | 55 | 1011.5 |
| 20260509205747 | 72 | 243 | 8.0 | 9.0 | 0.00 | 0.00 | 0.02 | 56 | 1011.5 |
| 20260509205134 | 71 | 238 | 8.0 | 9.0 | 0.00 | 0.00 | 0.02 | 53 | 1011.5 |
| 20260509204537 | 70 | 230 | 4.0 | 4.0 | 0.00 | 0.00 | 0.02 | 58 | 1011.5 |
| 20260509203950 | 68 | 333 | 2.0 | 6.0 | 0.00 | 0.00 | 0.02 | 63 | 1011.5 |
| 20260509203321 | 69 | 260 | 7.0 | 9.0 | 0.00 | 0.00 | 0.02 | 54 | 1011.5 |
| 20260509202753 | 68 | 254 | 7.0 | 9.0 | 0.00 | 0.00 | 0.02 | 56 | 1011.1 |
| 20260509202126 | 68 | 235 | 6.0 | 7.0 | 0.00 | 0.00 | 0.02 | 58 | 1011.5 |
| 20260509201532 | 69 | 252 | 6.0 | 8.0 | 0.00 | 0.00 | 0.02 | 58 | 1011.5 |
| 20260509200939 | 68 | 260 | 5.0 | 9.0 | 0.00 | 0.00 | 0.02 | 58 | 1011.8 |
| 20260509200309 | 68 | 249 | 7.0 | 10.0 | 0.00 | 0.00 | 0.02 | 56 | 1011.8 |
| 20260509195125 | 69 | 254 | 6.0 | 9.0 | 0.00 | 0.00 | 0.02 | 57 | 1012.1 |
| 20260509193915 | 70 | 237 | 6.0 | 7.0 | 0.00 | 0.00 | 0.02 | 56 | 1012.1 |
| 20260509193337 | 70 | 265 | 9.0 | 10.0 | 0.00 | 0.00 | 0.02 | 59 | 1012.1 |
| 20260509192748 | 70 | 246 | 6.0 | 8.0 | 0.00 | 0.00 | 0.02 | 55 | 1012.1 |
| 20260509191527 | 68 | 254 | 6.0 | 8.0 | 0.00 | 0.00 | 0.02 | 58 | 1012.1 |
| 20260509190313 | 67 | 252 | 7.0 | 9.0 | 0.00 | 0.00 | 0.02 | 62 | 1012.1 |
| 20260509185750 | 67 | 245 | 6.0 | 7.0 | 0.00 | 0.00 | 0.02 | 59 | 1011.8 |
| 20260509185114 | 66 | 262 | 1.0 | 1.0 | 0.00 | 0.00 | 0.02 | 62 | 1012.1 |
| 20260509184531 | 66 | 236 | 7.0 | 8.0 | 0.00 | 0.00 | 0.02 | 61 | 1012.1 |
| 20260509183936 | 65 | 247 | 4.0 | 7.0 | 0.00 | 0.00 | 0.02 | 65 | 1011.8 |
| 20260509183343 | 64 | 244 | 4.0 | 8.0 | 0.00 | 0.00 | 0.02 | 66 | 1012.1 |
| 20260509182727 | 64 | 225 | 4.0 | 10.0 | 0.00 | 0.00 | 0.02 | 65 | 1012.1 |
| 20260509182153 | 64 | 258 | 5.0 | 6.0 | 0.00 | 0.00 | 0.02 | 63 | 1012.1 |
| 20260509181515 | 64 | 231 | 4.0 | 6.0 | 0.00 | 0.00 | 0.02 | 66 | 1012.1 |
| 20260509180941 | 64 | 248 | 4.0 | 7.0 | 0.00 | 0.00 | 0.02 | 61 | 1012.1 |
| 20260509180315 | 64 | 233 | 4.0 | 4.0 | 0.00 | 0.00 | 0.02 | 67 | 1012.1 |
| 20260509175737 | 64 | 235 | 6.0 | 8.0 | 0.00 | 0.00 | 0.02 | 66 | 1012.1 |
| 20260509175152 | 64 | 257 | 3.0 | 4.0 | 0.00 | 0.00 | 0.02 | 63 | 1012.1 |
| 20260509174526 | 63 | 215 | 2.0 | 7.0 | 0.00 | 0.00 | 0.02 | 67 | 1012.1 |
| 20260509173310 | 61 | 249 | 6.0 | 8.0 | 0.00 | 0.00 | 0.02 | 71 | 1012.1 |
| 20260509172726 | 60 | 221 | 2.0 | 3.0 | 0.00 | 0.00 | 0.02 | 75 | 1012.5 |
| 20260509171510 | 61 | 330 | 3.0 | 4.0 | 0.00 | 0.00 | 0.02 | 73 | 1012.5 |
| 20260509170921 | 61 | 217 | 2.0 | 6.0 | 0.00 | 0.00 | 0.02 | 76 | 1012.5 |
| 20260509170323 | 60 | 193 | 1.0 | 1.0 | 0.00 | 0.00 | 0.02 | 78 | 1012.5 |
| 20260509165719 | 59 | 208 | 1.0 | 2.0 | 0.00 | 0.00 | 0.02 | 83 | 1012.5 |
| 20260509165132 | 60 | 120 | 0.0 | 0.0 | 0.00 | 0.00 | 0.02 | 83 | 1012.8 |
| 20260509164539 | 59 | 112 | 0.0 | 1.0 | 0.00 | 0.00 | 0.02 | 79 | 1013.2 |
| 20260509163934 | 59 | 111 | 0.0 | 0.0 | 0.00 | 0.00 | 0.02 | 84 | 1012.8 |
| 20260509162115 | 59 | 112 | 0.0 | 2.0 | 0.00 | 0.00 | 0.02 | 82 | 1012.8 |
| 20260509161540 | 59 | 111 | 0.0 | 0.0 | 0.00 | 0.00 | 0.02 | 82 | 1013.2 |
| 20260509160930 | 59 | 111 | 0.0 | 1.0 | 0.00 | 0.00 | 0.02 | 81 | 1013.2 |
| 20260509160345 | 58 | 109 | 1.0 | 1.0 | 0.00 | 0.00 | 0.02 | 83 | 1012.8 |
| 20260509155716 | 58 | 109 | 1.0 | 1.0 | 0.00 | 0.00 | 0.02 | 83 | 1012.8 |
| 20260509154540 | 58 | 112 | 1.0 | 1.0 | 0.00 | 0.00 | 0.02 | 84 | 1012.5 |
| 20260509153940 | 58 | 112 | 1.0 | 1.0 | 0.00 | 0.00 | 0.02 | 84 | 1012.5 |
| 20260509153324 | 59 | 112 | 1.0 | 1.0 | 0.00 | 0.00 | 0.02 | 83 | 1012.8 |
| 20260509152127 | 58 | 213 | 0.0 | 0.0 | 0.00 | 0.00 | 0.02 | 82 | 1012.8 |
| 20260509150915 | 58 | 210 | 1.0 | 1.0 | 0.00 | 0.00 | 0.02 | 86 | 1012.8 |
| 20260509150315 | 58 | 213 | 2.0 | 2.0 | 0.00 | 0.00 | 0.02 | 83 | 1012.8 |
| 20260509145740 | 58 | 206 | 1.0 | 1.0 | 0.00 | 0.00 | 0.02 | 86 | 1012.5 |
| 20260509145127 | 58 | 160 | 0.0 | 1.0 | 0.00 | 0.00 | 0.02 | 87 | 1012.1 |
| 20260509144508 | 58 | 160 | 0.0 | 0.0 | 0.00 | 0.00 | 0.02 | 87 | 1012.5 |
| 20260509143907 | 58 | 160 | 0.0 | 0.0 | 0.00 | 0.00 | 0.02 | 88 | 1012.8 |
| 20260509142746 | 57 | 159 | 0.0 | 0.0 | 0.00 | 0.00 | 0.02 | 86 | 1012.5 |
| 20260509141517 | 56 | 151 | 2.0 | 1.0 | 0.00 | 0.00 | 0.02 | 92 | 1012.5 |
| 20260509140924 | 56 | 147 | 0.0 | 1.0 | 0.00 | 0.00 | 0.02 | 90 | 1012.5 |
| 20260509140344 | 56 | 157 | 0.0 | 1.0 | 0.00 | 0.00 | 0.02 | 93 | 1012.5 |
| 20260509135710 | 55 | 158 | 0.0 | 1.0 | 0.00 | 0.00 | 0.02 | 93 | 1012.8 |
| 20260509135112 | 55 | 157 | 0.0 | 1.0 | 0.00 | 0.00 | 0.02 | 93 | 1012.5 |
| 20260509134545 | 55 | 156 | 1.0 | 1.0 | 0.00 | 0.00 | 0.02 | 92 | 1012.8 |
| 20260509133914 | 55 | 157 | 0.0 | 2.0 | 0.00 | 0.00 | 0.02 | 91 | 1012.8 |
| 20260509132743 | 55 | 153 | 0.0 | 0.0 | 0.00 | 0.00 | 0.02 | 93 | 1012.8 |
| 20260509132132 | 54 | 153 | 0.0 | 0.0 | 0.00 | 0.00 | 0.02 | 93 | 1012.8 |
| 20260509131511 | 54 | 154 | 0.0 | 1.0 | 0.00 | 0.00 | 0.02 | 93 | 1012.8 |
| 20260509130917 | 54 | 153 | 0.0 | 1.0 | 0.00 | 0.00 | 0.02 | 92 | 1012.8 |
| 20260509130311 | 54 | 153 | 0.0 | 0.0 | 0.00 | 0.00 | 0.02 | 93 | 1012.8 |
| 20260509125721 | 54 | 135 | 0.0 | 0.0 | 0.00 | 0.00 | 0.02 | 93 | 1012.8 |
| 20260509125123 | 54 | 135 | 0.0 | 0.0 | 0.00 | 0.00 | 0.02 | 93 | 1013.2 |
| 20260509123935 | 53 | 135 | 1.0 | 1.0 | 0.00 | 0.00 | 0.01 | 92 | 1013.2 |
| 20260509123351 | 53 | 135 | 0.0 | 0.0 | 0.00 | 0.00 | 0.01 | 93 | 1013.2 |
| 20260509122746 | 53 | 135 | 0.0 | 0.0 | 0.00 | 0.00 | 0.01 | 93 | 1013.2 |
| 20260509122142 | 53 | 136 | 1.0 | 1.0 | 0.00 | 0.00 | 0.01 | 94 | 1013.2 |
| 20260509121510 | 53 | 137 | 0.0 | 1.0 | 0.00 | 0.00 | 0.01 | 94 | 1013.2 |
| 20260509120914 | 53 | 137 | 1.0 | 1.0 | 0.00 | 0.00 | 0.01 | 95 | 1013.2 |